createdAt,value
2018-07-17T00:01:03.737Z,6.57
2018-07-17T00:03:31.905Z,5.17
2018-07-17T00:06:00.081Z,7.17
2018-07-17T00:08:28.252Z,7.70
2018-07-17T00:10:56.431Z,8.70
2018-07-17T00:13:24.609Z,13.40
2018-07-17T00:15:52.795Z,23.67
2018-07-17T00:18:20.976Z,26.07
2018-07-17T00:20:49.157Z,22.57
2018-07-17T00:23:17.337Z,22.27
2018-07-17T00:25:45.527Z,11.07
2018-07-17T00:28:13.705Z,10.83
2018-07-17T00:30:41.884Z,12.27
2018-07-17T00:33:10.084Z,18.63
2018-07-17T00:35:38.269Z,13.03
2018-07-17T00:38:06.455Z,16.40
2018-07-17T00:40:34.650Z,17.03
2018-07-17T00:43:02.823Z,20.33
2018-07-17T00:45:30.988Z,8.07
2018-07-17T00:47:59.185Z,11.63
2018-07-17T00:50:27.369Z,11.67
2018-07-17T00:52:55.570Z,11.47
2018-07-17T00:55:23.750Z,11.33
2018-07-17T00:57:51.916Z,9.83
2018-07-17T01:00:20.097Z,7.83
2018-07-17T01:02:53.619Z,7.13
2018-07-17T01:05:27.261Z,7.57
2018-07-17T01:08:00.878Z,7.63
2018-07-17T01:10:34.598Z,7.23
2018-07-17T01:13:02.024Z,7.97
2018-07-17T01:15:37.275Z,8.70
2018-07-17T01:18:05.437Z,7.10
2018-07-17T01:20:33.641Z,14.53
2018-07-17T01:23:01.817Z,8.33
2018-07-17T01:25:29.996Z,16.00
2018-07-17T01:27:58.170Z,18.47
2018-07-17T01:30:26.372Z,17.27
2018-07-17T01:32:54.576Z,16.10
2018-07-17T01:35:22.752Z,12.97
2018-07-17T01:37:50.920Z,10.63
2018-07-17T01:40:19.129Z,7.67
2018-07-17T01:42:47.288Z,9.37
2018-07-17T01:45:15.549Z,7.37
2018-07-17T01:47:43.725Z,8.63
2018-07-17T01:50:11.906Z,7.20
2018-07-17T01:52:40.093Z,11.57
2018-07-17T01:55:08.265Z,7.73
2018-07-17T01:57:36.468Z,7.30
2018-07-17T02:00:05.028Z,6.87
2018-07-17T02:02:33.201Z,6.73
2018-07-17T02:05:01.378Z,8.23
2018-07-17T02:07:29.549Z,6.87
2018-07-17T02:09:57.729Z,6.53
2018-07-17T02:12:25.904Z,7.00
2018-07-17T02:14:54.107Z,6.83
2018-07-17T02:17:22.256Z,10.40
2018-07-17T02:19:50.433Z,6.70
2018-07-17T02:22:18.823Z,7.50
2018-07-17T02:24:47.012Z,10.60
2018-07-17T02:27:16.321Z,10.60
2018-07-17T02:29:45.880Z,10.53
2018-07-17T02:32:14.164Z,8.53
2018-07-17T02:34:42.392Z,8.33
2018-07-17T02:37:10.345Z,8.40
2018-07-17T02:39:38.534Z,9.40
2018-07-17T02:42:06.986Z,10.47
2018-07-17T02:44:35.153Z,10.17
2018-07-17T02:47:03.316Z,9.83
2018-07-17T02:49:31.779Z,10.37
2018-07-17T02:51:59.957Z,12.03
2018-07-17T02:54:28.145Z,9.60
2018-07-17T02:56:56.321Z,10.63
2018-07-17T02:59:24.503Z,11.93
2018-07-17T03:01:52.677Z,10.67
2018-07-17T03:04:20.849Z,10.97
2018-07-17T03:06:49.036Z,10.97
2018-07-17T03:09:17.219Z,12.27
2018-07-17T03:11:45.469Z,10.43
2018-07-17T03:14:13.637Z,9.83
2018-07-17T03:16:41.815Z,10.17
2018-07-17T03:19:09.993Z,10.97
2018-07-17T03:21:38.183Z,9.53
2018-07-17T03:24:06.397Z,13.13
2018-07-17T03:26:34.591Z,9.63
2018-07-17T03:29:02.804Z,10.20
2018-07-17T03:31:31.014Z,9.50
2018-07-17T03:33:59.214Z,9.87
2018-07-17T03:36:27.418Z,12.77
2018-07-17T03:38:55.622Z,9.00
2018-07-17T03:41:23.809Z,9.37
2018-07-17T03:43:52.014Z,11.40
2018-07-17T03:46:20.194Z,8.90
2018-07-17T03:48:48.245Z,10.60
2018-07-17T03:51:16.461Z,9.00
2018-07-17T03:53:44.657Z,10.77
2018-07-17T03:56:12.852Z,13.53
2018-07-17T03:58:41.065Z,17.90
2018-07-17T04:01:09.260Z,17.90
2018-07-17T04:03:37.444Z,19.27
2018-07-17T04:06:05.662Z,21.93
2018-07-17T04:08:33.901Z,14.80
2018-07-17T04:11:02.105Z,13.70
2018-07-17T04:13:30.316Z,11.63
2018-07-17T04:15:58.518Z,10.87
2018-07-17T04:18:26.495Z,11.30
2018-07-17T04:20:54.725Z,11.17
2018-07-17T04:23:22.915Z,9.20
2018-07-17T04:25:51.098Z,9.30
2018-07-17T04:28:19.289Z,8.37
2018-07-17T04:30:47.479Z,8.00
2018-07-17T04:33:15.673Z,8.90
2018-07-17T04:35:43.856Z,11.40
2018-07-17T04:38:12.045Z,8.47
2018-07-17T04:40:40.228Z,8.47
2018-07-17T04:43:08.409Z,8.77
2018-07-17T04:45:36.613Z,9.27
2018-07-17T04:48:04.860Z,8.20
2018-07-17T04:50:33.039Z,8.30
2018-07-17T04:53:02.240Z,8.37
2018-07-17T04:55:30.439Z,9.17
2018-07-17T04:57:58.665Z,10.30
2018-07-17T05:00:26.856Z,9.07
2018-07-17T05:02:55.049Z,8.40
2018-07-17T05:05:23.245Z,9.30
2018-07-17T05:07:51.532Z,8.00
2018-07-17T05:10:19.730Z,10.53
2018-07-17T05:12:47.927Z,11.57
2018-07-17T05:15:16.111Z,9.40
2018-07-17T05:17:44.306Z,9.23
2018-07-17T05:20:12.522Z,7.40
2018-07-17T05:22:40.707Z,9.07
2018-07-17T05:25:09.150Z,10.40
2018-07-17T05:27:37.329Z,7.67
2018-07-17T05:30:05.998Z,7.93
2018-07-17T05:32:34.300Z,7.87
2018-07-17T05:35:02.504Z,7.97
2018-07-17T05:37:30.669Z,7.63
2018-07-17T05:39:58.849Z,8.37
2018-07-17T05:42:27.033Z,6.00
2018-07-17T05:44:55.216Z,7.27
2018-07-17T05:47:23.394Z,6.87
2018-07-17T05:49:51.562Z,7.23
2018-07-17T05:52:19.741Z,5.47
2018-07-17T05:54:47.929Z,5.07
2018-07-17T05:57:16.092Z,5.37
2018-07-17T05:59:44.322Z,5.67
2018-07-17T06:02:12.940Z,5.40
2018-07-17T06:04:41.189Z,7.00
2018-07-17T06:07:09.361Z,10.40
2018-07-17T06:09:37.639Z,6.20
2018-07-17T06:12:05.853Z,6.60
2018-07-17T06:14:34.035Z,7.60
2018-07-17T06:17:02.212Z,4.90
2018-07-17T06:19:30.413Z,7.03
2018-07-17T06:21:58.659Z,5.47
2018-07-17T06:24:27.517Z,6.63
2018-07-17T06:26:55.785Z,6.13
2018-07-17T06:29:23.945Z,6.80
2018-07-17T06:31:52.128Z,6.17
2018-07-17T06:34:20.412Z,6.37
2018-07-17T06:36:48.592Z,5.70
2018-07-17T06:39:16.779Z,7.03
2018-07-17T06:41:45.039Z,7.40
2018-07-17T06:44:13.218Z,7.63
2018-07-17T06:46:41.406Z,6.13
2018-07-17T06:49:09.579Z,6.53
2018-07-17T06:51:37.740Z,7.47
2018-07-17T06:54:05.931Z,8.37
2018-07-17T06:56:34.105Z,7.67
2018-07-17T06:59:02.290Z,6.63
2018-07-17T07:01:30.472Z,6.47
2018-07-17T07:03:58.652Z,5.90
2018-07-17T07:06:26.829Z,5.10
2018-07-17T07:08:54.996Z,8.03
2018-07-17T07:11:23.175Z,5.63
2018-07-17T07:13:51.347Z,5.90
2018-07-17T07:16:19.665Z,8.80
2018-07-17T07:18:47.841Z,5.40
2018-07-17T07:21:16.007Z,5.50
2018-07-17T07:23:44.218Z,5.90
2018-07-17T07:26:12.494Z,8.97
2018-07-17T07:28:40.775Z,7.40
2018-07-17T07:31:08.941Z,8.47
2018-07-17T07:33:37.244Z,5.90
2018-07-17T07:36:06.057Z,5.67
2018-07-17T07:38:34.229Z,6.87
2018-07-17T07:41:02.889Z,7.10
2018-07-17T07:43:31.073Z,5.37
2018-07-17T07:45:59.349Z,7.53
2018-07-17T07:48:27.537Z,5.70
2018-07-17T07:50:55.709Z,6.77
2018-07-17T07:53:23.884Z,5.57
2018-07-17T07:55:52.093Z,5.67
2018-07-17T07:58:20.289Z,6.00
2018-07-17T08:00:48.464Z,6.63
2018-07-17T08:03:16.646Z,6.30
2018-07-17T08:05:44.828Z,6.37
2018-07-17T08:08:13.009Z,6.03
2018-07-17T08:10:41.196Z,6.23
2018-07-17T08:13:09.364Z,6.60
2018-07-17T08:15:37.544Z,6.17
2018-07-17T08:18:05.714Z,6.47
2018-07-17T08:20:33.904Z,7.27
2018-07-17T08:23:02.084Z,5.70
2018-07-17T08:25:30.253Z,5.57
2018-07-17T08:27:58.424Z,6.40
2018-07-17T08:30:26.606Z,5.70
2018-07-17T08:32:55.030Z,5.67
2018-07-17T08:35:23.205Z,8.67
2018-07-17T08:37:51.431Z,5.97
2018-07-17T08:40:19.679Z,8.23
2018-07-17T08:42:47.867Z,7.93
2018-07-17T08:45:16.093Z,6.53
2018-07-17T08:47:44.272Z,6.70
2018-07-17T08:50:12.468Z,8.97
2018-07-17T08:52:40.644Z,6.03
2018-07-17T08:55:08.824Z,5.57
2018-07-17T08:57:37.019Z,4.57
2018-07-17T09:00:05.753Z,4.87
2018-07-17T09:02:33.925Z,5.23
2018-07-17T09:05:02.098Z,5.80
2018-07-17T09:07:30.272Z,4.70
2018-07-17T09:09:58.445Z,5.43
2018-07-17T09:12:26.632Z,4.20
2018-07-17T09:14:55.129Z,6.97
2018-07-17T09:17:23.301Z,4.47
2018-07-17T09:19:51.496Z,6.43
2018-07-17T09:22:19.679Z,4.57
2018-07-17T09:24:47.857Z,5.77
2018-07-17T09:27:16.033Z,4.13
2018-07-17T09:29:44.210Z,4.13
2018-07-17T09:32:12.405Z,5.17
2018-07-17T09:34:40.631Z,4.60
2018-07-17T09:37:08.821Z,5.33
2018-07-17T09:39:37.009Z,3.67
2018-07-17T09:42:05.200Z,4.00
2018-07-17T09:44:33.374Z,3.87
2018-07-17T09:47:01.545Z,4.07
2018-07-17T09:49:29.738Z,4.47
2018-07-17T09:51:57.920Z,3.90
2018-07-17T09:54:26.183Z,4.40
2018-07-17T09:56:54.280Z,4.00
2018-07-17T09:59:22.506Z,3.80
2018-07-17T10:01:56.107Z,5.00
2018-07-17T10:04:24.288Z,5.27
2018-07-17T10:06:52.465Z,4.60
2018-07-17T10:09:20.712Z,3.10
2018-07-17T10:11:48.858Z,4.43
2018-07-17T10:14:17.049Z,4.23
2018-07-17T10:16:45.257Z,3.80
2018-07-17T10:19:13.469Z,3.87
2018-07-17T10:21:41.646Z,5.10
2018-07-17T10:24:09.848Z,3.57
2018-07-17T10:26:38.120Z,3.73
2018-07-17T10:29:06.288Z,4.57
2018-07-17T10:31:34.489Z,5.77
2018-07-17T10:34:02.682Z,4.60
2018-07-17T10:36:30.889Z,3.60
2018-07-17T10:38:59.079Z,4.63
2018-07-17T10:41:27.261Z,5.00
2018-07-17T10:43:55.463Z,6.07
2018-07-17T10:46:23.706Z,4.70
2018-07-17T10:48:51.917Z,5.67
2018-07-17T10:51:19.907Z,4.83
2018-07-17T10:53:48.101Z,3.57
2018-07-17T10:56:16.339Z,4.43
2018-07-17T11:00:08.775Z,3.90
2018-07-17T11:02:37.036Z,6.60
2018-07-17T11:05:05.236Z,6.47
2018-07-17T11:07:33.547Z,5.33
2018-07-17T11:10:01.825Z,4.37
2018-07-17T11:12:30.011Z,5.27
2018-07-17T11:14:58.193Z,4.80
2018-07-17T11:17:26.382Z,5.60
2018-07-17T11:19:54.589Z,6.90
2018-07-17T11:22:22.765Z,4.10
2018-07-17T11:24:50.692Z,4.13
2018-07-17T11:27:18.913Z,4.10
2018-07-17T11:29:47.088Z,3.50
2018-07-17T11:32:15.283Z,3.37
2018-07-17T11:34:43.476Z,3.63
2018-07-17T11:37:11.710Z,4.27
2018-07-17T11:39:39.885Z,3.70
2018-07-17T11:42:08.063Z,3.60
2018-07-17T11:44:36.260Z,3.67
2018-07-17T11:47:04.545Z,3.73
2018-07-17T11:49:32.733Z,3.47
2018-07-17T11:52:00.908Z,3.17
2018-07-17T11:54:29.098Z,6.70
2018-07-17T11:58:21.509Z,3.83
2018-07-17T12:00:49.692Z,4.20
2018-07-17T12:03:17.882Z,5.77
2018-07-17T12:05:46.094Z,4.00
2018-07-17T12:08:14.261Z,3.73
2018-07-17T12:10:42.457Z,3.70
2018-07-17T12:13:10.660Z,4.00
2018-07-17T12:15:38.844Z,4.50
2018-07-17T12:18:07.043Z,4.13
2018-07-17T12:20:35.369Z,3.33
2018-07-17T12:23:03.405Z,3.83
2018-07-17T12:25:31.593Z,3.90
2018-07-17T12:27:59.794Z,5.20
2018-07-17T12:30:27.965Z,4.27
2018-07-17T12:32:56.144Z,5.03
2018-07-17T12:35:24.326Z,5.23
2018-07-17T12:37:52.522Z,4.07
2018-07-17T12:40:20.705Z,4.27
2018-07-17T12:42:48.896Z,4.57
2018-07-17T12:45:17.152Z,8.60
2018-07-17T12:47:45.349Z,4.77
2018-07-17T12:50:13.533Z,3.53
2018-07-17T12:52:41.708Z,3.70
2018-07-17T12:55:09.897Z,5.10
2018-07-17T12:57:38.073Z,3.70
2018-07-17T13:00:06.572Z,3.97
2018-07-17T13:02:34.870Z,3.60
2018-07-17T13:05:03.062Z,2.37
2018-07-17T13:07:31.273Z,4.23
2018-07-17T13:09:59.463Z,3.10
2018-07-17T13:12:27.641Z,3.03
2018-07-17T13:14:55.834Z,4.67
2018-07-17T13:17:24.021Z,3.23
2018-07-17T13:19:52.188Z,2.97
2018-07-17T13:22:20.382Z,3.17
2018-07-17T13:24:48.560Z,2.73
2018-07-17T13:27:16.840Z,3.73
2018-07-17T13:29:45.018Z,2.93
2018-07-17T13:32:13.205Z,3.07
2018-07-17T13:34:41.373Z,3.53
2018-07-17T13:37:09.564Z,2.77
2018-07-17T13:39:37.753Z,2.50
2018-07-17T13:42:05.942Z,3.97
2018-07-17T13:44:34.134Z,2.77
2018-07-17T13:47:02.342Z,2.33
2018-07-17T13:49:30.525Z,2.80
2018-07-17T13:51:58.740Z,3.90
2018-07-17T13:54:26.919Z,2.77
2018-07-17T13:56:55.108Z,2.30
2018-07-17T13:59:23.321Z,2.63
2018-07-17T14:01:51.521Z,2.33
2018-07-17T14:04:19.715Z,3.07
2018-07-17T14:06:48.007Z,3.93
2018-07-17T14:09:16.217Z,3.37
2018-07-17T14:11:44.411Z,2.37
2018-07-17T14:14:12.599Z,5.37
2018-07-17T14:16:40.802Z,3.60
2018-07-17T14:19:08.991Z,3.83
2018-07-17T14:21:37.153Z,5.50
2018-07-17T14:24:05.432Z,4.17
2018-07-17T14:26:33.649Z,4.27
2018-07-17T14:29:01.826Z,5.97
2018-07-17T14:31:30.923Z,3.70
2018-07-17T14:33:59.116Z,3.37
2018-07-17T14:36:27.296Z,5.87
2018-07-17T14:38:55.518Z,4.50
2018-07-17T14:41:23.759Z,3.97
2018-07-17T14:43:51.957Z,3.93
2018-07-17T14:46:20.130Z,3.40
2018-07-17T14:48:48.312Z,3.73
2018-07-17T14:51:16.521Z,9.10
2018-07-17T14:53:44.704Z,4.67
2018-07-17T14:56:12.893Z,3.57
2018-07-17T14:58:41.065Z,3.27
2018-07-17T15:01:09.264Z,3.57
2018-07-17T15:03:37.451Z,2.93
2018-07-17T15:06:05.635Z,3.37
2018-07-17T15:08:33.807Z,6.77
2018-07-17T15:11:01.989Z,3.30
2018-07-17T15:13:30.169Z,5.30
2018-07-17T15:15:58.479Z,5.27
2018-07-17T15:18:26.554Z,4.90
2018-07-17T15:20:54.732Z,8.17
2018-07-17T15:23:22.909Z,7.00
2018-07-17T15:25:51.090Z,6.50
2018-07-17T15:28:19.357Z,6.80
2018-07-17T15:30:47.551Z,7.83
2018-07-17T15:33:15.730Z,6.80
2018-07-17T15:35:43.910Z,14.80
2018-07-17T15:38:12.103Z,15.33
2018-07-17T15:40:40.281Z,23.53
2018-07-17T15:43:08.471Z,11.97
2018-07-17T15:45:36.655Z,9.07
2018-07-17T15:48:04.855Z,7.77
2018-07-17T15:50:33.041Z,5.70
2018-07-17T15:53:01.297Z,6.93
2018-07-17T15:55:29.481Z,8.57
2018-07-17T15:57:57.677Z,7.60
2018-07-17T16:00:25.857Z,22.30
2018-07-17T16:02:54.042Z,8.17
2018-07-17T16:05:22.210Z,7.83
2018-07-17T16:07:50.394Z,6.67
2018-07-17T16:10:18.564Z,5.23
2018-07-17T16:12:47.021Z,6.00
2018-07-17T16:15:15.188Z,8.73
2018-07-17T16:17:43.381Z,9.33
2018-07-17T16:20:11.621Z,6.13
2018-07-17T16:22:39.765Z,4.83
2018-07-17T16:25:07.954Z,4.80
2018-07-17T16:27:36.137Z,6.83
2018-07-17T16:30:06.025Z,5.10
2018-07-17T16:32:34.209Z,6.17
2018-07-17T16:35:02.428Z,6.37
2018-07-17T16:37:30.598Z,8.70
2018-07-17T16:39:58.778Z,5.53
2018-07-17T16:42:26.961Z,5.93
2018-07-17T16:44:55.163Z,6.67
2018-07-17T16:47:23.993Z,5.47
2018-07-17T16:49:51.976Z,7.80
2018-07-17T16:52:20.152Z,4.30
2018-07-17T16:54:48.324Z,4.90
2018-07-17T16:57:16.500Z,8.13
2018-07-17T16:59:44.681Z,5.00
2018-07-17T17:02:13.975Z,5.00
2018-07-17T17:04:42.165Z,5.03
2018-07-17T17:07:10.372Z,4.90
2018-07-17T17:09:39.572Z,6.27
2018-07-17T17:12:08.051Z,5.17
2018-07-17T17:14:36.248Z,4.53
2018-07-17T17:17:04.438Z,5.80
2018-07-17T17:19:32.633Z,10.90
2018-07-17T17:22:00.847Z,6.07
2018-07-17T17:24:29.214Z,4.77
2018-07-17T17:26:57.262Z,12.40
2018-07-17T17:29:25.698Z,5.63
2018-07-17T17:31:53.813Z,7.23
2018-07-17T17:34:21.997Z,7.57
2018-07-17T17:36:50.203Z,4.23
2018-07-17T17:39:18.359Z,3.40
2018-07-17T17:41:46.586Z,3.60
2018-07-17T17:44:14.754Z,5.30
2018-07-17T17:46:42.920Z,7.53
2018-07-17T17:49:11.116Z,6.73
2018-07-17T17:51:39.327Z,6.70
2018-07-17T17:54:07.457Z,4.40
2018-07-17T17:56:35.673Z,5.00
2018-07-17T17:59:03.852Z,11.03
2018-07-17T18:01:32.027Z,8.93
2018-07-17T18:04:00.307Z,10.20
2018-07-17T18:06:29.303Z,6.17
2018-07-17T18:08:57.488Z,10.63
2018-07-17T18:11:25.954Z,8.80
2018-07-17T18:13:54.144Z,15.50
2018-07-17T18:16:22.330Z,9.00
2018-07-17T18:18:50.585Z,8.07
2018-07-17T18:21:18.752Z,12.97
2018-07-17T18:23:46.945Z,15.17
2018-07-17T18:26:15.133Z,11.97
2018-07-17T18:28:43.308Z,11.43
2018-07-17T18:31:11.489Z,9.53
2018-07-17T18:33:39.664Z,10.37
2018-07-17T18:36:07.840Z,13.00
2018-07-17T18:38:36.025Z,11.93
2018-07-17T18:41:04.208Z,8.77
2018-07-17T18:43:32.408Z,12.27
2018-07-17T18:46:00.585Z,14.93
2018-07-17T18:48:28.791Z,18.63
2018-07-17T18:50:56.985Z,15.40
2018-07-17T18:53:25.206Z,7.30
2018-07-17T18:55:53.397Z,11.60
2018-07-17T18:58:21.583Z,6.87
2018-07-17T19:00:49.753Z,7.37
2018-07-17T19:03:18.038Z,6.07
2018-07-17T19:05:46.223Z,6.53
2018-07-17T19:08:14.404Z,6.80
2018-07-17T19:10:42.589Z,6.43
2018-07-17T19:13:10.788Z,5.90
2018-07-17T19:15:38.965Z,19.87
2018-07-17T19:18:07.151Z,8.03
2018-07-17T19:20:35.351Z,8.47
2018-07-17T19:23:03.520Z,5.13
2018-07-17T19:25:31.724Z,6.47
2018-07-17T19:27:59.908Z,6.93
2018-07-17T19:30:28.085Z,6.10
2018-07-17T19:32:56.342Z,5.87
2018-07-17T19:35:24.547Z,6.13
2018-07-17T19:37:52.717Z,5.20
2018-07-17T19:40:20.894Z,5.43
2018-07-17T19:42:49.086Z,4.70
2018-07-17T19:45:17.252Z,6.63
2018-07-17T19:47:45.420Z,7.53
2018-07-17T19:50:13.615Z,6.30
2018-07-17T19:52:41.819Z,9.30
2018-07-17T19:55:09.986Z,5.00
2018-07-17T19:57:38.187Z,5.47
2018-07-17T20:00:06.963Z,5.90
2018-07-17T20:02:35.168Z,8.77
2018-07-17T20:05:03.364Z,4.90
2018-07-17T20:07:31.550Z,6.80
2018-07-17T20:09:59.788Z,22.17
2018-07-17T20:12:28.005Z,13.30
2018-07-17T20:14:56.200Z,8.00
2018-07-17T20:17:24.448Z,46.83
2018-07-17T20:19:52.697Z,13.40
2018-07-17T20:22:20.930Z,13.57
2018-07-17T20:24:49.173Z,16.53
2018-07-17T20:27:17.424Z,9.67
2018-07-17T20:29:45.625Z,9.03
2018-07-17T20:32:13.991Z,6.80
2018-07-17T20:34:42.157Z,10.53
2018-07-17T20:37:10.413Z,13.20
2018-07-17T20:39:38.600Z,6.30
2018-07-17T20:42:06.801Z,6.13
2018-07-17T20:44:35.014Z,8.37
2018-07-17T20:47:03.239Z,5.67
2018-07-17T20:49:31.450Z,12.50
2018-07-17T20:51:59.677Z,7.63
2018-07-17T20:54:27.852Z,7.83
2018-07-17T20:56:56.070Z,6.90
2018-07-17T20:59:24.397Z,4.90
2018-07-17T21:01:52.589Z,9.27
2018-07-17T21:04:20.781Z,11.00
2018-07-17T21:06:48.982Z,9.07
2018-07-17T21:09:17.168Z,4.63
2018-07-17T21:11:45.366Z,9.30
2018-07-17T21:14:13.553Z,4.83
2018-07-17T21:16:41.748Z,6.33
2018-07-17T21:19:09.948Z,6.87
2018-07-17T21:21:38.161Z,7.17
2018-07-17T21:24:06.375Z,8.60
2018-07-17T21:26:34.567Z,10.97
2018-07-17T21:29:02.772Z,10.90
2018-07-17T21:31:31.050Z,5.93
2018-07-17T21:33:59.465Z,7.13
2018-07-17T21:36:27.674Z,6.37
2018-07-17T21:38:55.886Z,7.10
2018-07-17T21:41:24.077Z,7.53
2018-07-17T21:43:52.301Z,5.57
2018-07-17T21:46:20.568Z,7.73
2018-07-17T21:48:49.065Z,5.17
2018-07-17T21:51:17.279Z,7.47
2018-07-17T21:53:45.241Z,5.50
2018-07-17T21:56:13.436Z,5.60
2018-07-17T21:58:41.641Z,7.30
2018-07-17T22:01:09.833Z,5.13
2018-07-17T22:03:38.056Z,4.97
2018-07-17T22:06:06.261Z,4.60
2018-07-17T22:08:34.445Z,4.50
2018-07-17T22:11:02.617Z,4.10
2018-07-17T22:13:30.796Z,5.00
2018-07-17T22:16:00.602Z,5.07
2018-07-17T22:18:29.189Z,4.37
2018-07-17T22:20:57.356Z,4.53
2018-07-17T22:23:26.488Z,5.50
2018-07-17T22:25:54.908Z,4.50
2018-07-17T22:28:23.208Z,5.83
2018-07-17T22:30:51.398Z,5.80
2018-07-17T22:33:19.597Z,5.73
2018-07-17T22:35:47.788Z,4.43
2018-07-17T22:38:16.245Z,4.37
2018-07-17T22:40:44.417Z,5.00
2018-07-17T22:43:12.585Z,6.17
2018-07-17T22:45:40.790Z,4.70
2018-07-17T22:48:08.999Z,8.03
2018-07-17T22:50:37.197Z,26.43
2018-07-17T22:53:05.407Z,18.97
2018-07-17T22:55:33.607Z,15.07
2018-07-17T22:58:01.806Z,11.33
2018-07-17T23:00:30.031Z,7.30
2018-07-17T23:02:58.230Z,7.97
2018-07-17T23:05:26.451Z,6.50
2018-07-17T23:07:54.651Z,7.77
2018-07-17T23:10:22.850Z,5.03
2018-07-17T23:12:51.038Z,5.07
2018-07-17T23:15:19.243Z,6.17
2018-07-17T23:17:47.422Z,4.53
2018-07-17T23:20:15.614Z,6.93
2018-07-17T23:22:52.157Z,5.10
2018-07-17T23:25:20.846Z,4.43
2018-07-17T23:27:49.045Z,4.70
2018-07-17T23:30:17.481Z,4.63
2018-07-17T23:32:47.309Z,5.63
2018-07-17T23:35:15.530Z,7.07
2018-07-17T23:37:43.742Z,5.53
2018-07-17T23:40:11.913Z,4.47
2018-07-17T23:42:40.305Z,4.40
2018-07-17T23:45:08.608Z,6.33
2018-07-17T23:47:37.171Z,10.97
2018-07-17T23:50:05.477Z,7.23
2018-07-17T23:52:33.677Z,6.97
